Главная страница
METAR-TAF:

METAR-TAF

Аэропорты :

Пальма-де-Мальорка

Пальма, Испания

широта: 39-33N, долгота: 002-44E, высота над уровнем моря: 4 м

Текущие метеонаблюдения

Эта сводка был подготовлена 25 минут назад, в 20:00 UTC
Ветер 4 Узел от западный-юго-западный
Температура 22°C
Влажность 69%
Давление 1014 hPa
Видимость 10 км и более
Нет облачности ниже 1500 м, и нет кучево-дождевой облачности

METAR: LEPA 022000Z 24004KT CAVOK 22/16 Q1014 NOSIG

Время: 22:25 (20:25 UTC)

Прогноз

Эта сводка был подготовлена 3 часа и 25 минут назад, в 17:00 UTC
Прогноз действительный с 02-го 18 UTC до 03-го 18 UTC
Ветер 7 Узел от юго-западный
Видимость 10 км и более
небольшая облачность на высоте 3500 фута
изменения
С 02-го 18 UTC до 02-го 20 UTC
Ветер 3 Узел переменных направлений
изменения
С 03-го 09 UTC до 03-го 11 UTC
Ветер 8 Узел от южный-юго-западный

TAF: LEPA 021700Z 0218/0318 23007KT 9999 FEW035 TX28/0312Z TN15/0306Z BECMG 0218/0220 VRB03KT BECMG 0309/0311 21008KT

Метеонаблюдения и прогнозы для более 4000 аэропортов (сводки METAR и TAF).

Имеющиеся станции представлены на карте желтыми и красными точками.

Чтобы увидеть название станции, наведите на нее мышь.

Затем щелкните, чтобы увидеть метеонаблюдения и метеопрогнозы.

Управление картой: чтобы увеличить масштаб, щелкните зеленые кнопки с черным крестиком; чтобы уменьшить масштаб, щелкните зеленую кнопку с тире; для просмотра соседних карт щелкайте зеленые стрелки.


METAR-TAF: